Argonne, Minnesota
Current Conditions -  °F | °C
As of 1:26 AM on Sunday 23 Nov 2014 (Local Time) from KLVN Reporting Station
Haze Haze  
Wind Chill:   Ceiling: 1400
Heat Index:   Visibility: 5mi
Dew Point:   Wind: 10mph
Humidity: 100%   Direction: 190°S
Pressure: 29.47"   Gusts: NA
Location:  44.6349°N, 93.283°W
Report Text: KLVN 230726Z AUTO 19009KT 5SM BR BKN014 BKN019 08/08 A2947 RMK AO2
Loading
Personal Weather Stations






























Interactive Weather Map New forecast layout! Learn more

10-Day Weather Forecast

Advertisements
Track Severe Weather on mobile